createdAt,value
2018-02-23T00:00:37.781Z,0.99
2018-02-23T00:03:06.945Z,0.98
2018-02-23T00:05:35.296Z,0.98
2018-02-23T00:08:03.635Z,0.98
2018-02-23T00:10:32.766Z,1.00
2018-02-23T00:13:01.086Z,1.00
2018-02-23T00:15:29.432Z,0.99
2018-02-23T00:17:58.376Z,0.98
2018-02-23T00:20:26.706Z,1.00
2018-02-23T00:22:55.041Z,1.00
2018-02-23T00:25:23.394Z,1.00
2018-02-23T00:27:51.712Z,1.01
2018-02-23T00:30:20.144Z,1.06
2018-02-23T00:32:48.474Z,1.07
2018-02-23T00:35:17.612Z,1.10
2018-02-23T00:37:46.034Z,1.06
2018-02-23T00:40:14.424Z,1.08
2018-02-23T00:42:43.122Z,1.08
2018-02-23T00:45:11.522Z,1.13
2018-02-23T00:47:39.859Z,1.16
2018-02-23T00:50:08.178Z,1.19
2018-02-23T00:52:37.300Z,1.20
2018-02-23T00:55:05.698Z,1.19
2018-02-23T00:57:34.042Z,1.19
2018-02-23T01:00:03.154Z,1.21
2018-02-23T01:02:32.266Z,1.22
2018-02-23T01:05:01.368Z,1.17
2018-02-23T01:07:29.768Z,1.16
2018-02-23T01:09:58.138Z,1.15
2018-02-23T01:12:26.476Z,1.11
2018-02-23T01:14:54.862Z,1.07
2018-02-23T01:17:24.023Z,1.01
2018-02-23T01:19:52.403Z,0.94
2018-02-23T01:22:20.817Z,0.90
2018-02-23T01:24:49.145Z,0.86
2018-02-23T01:27:17.484Z,0.83
2018-02-23T01:29:45.825Z,0.81
2018-02-23T01:32:14.183Z,0.85
2018-02-23T01:34:42.528Z,0.84
2018-02-23T01:37:11.651Z,0.82
2018-02-23T01:39:40.012Z,0.79
2018-02-23T01:42:08.380Z,0.75
2018-02-23T01:44:36.714Z,0.73
2018-02-23T01:47:05.089Z,0.67
2018-02-23T01:49:33.483Z,0.70
2018-02-23T01:52:01.844Z,0.67
2018-02-23T01:54:30.266Z,0.67
2018-02-23T01:56:58.655Z,0.69
2018-02-23T01:59:27.054Z,0.73
2018-02-23T02:01:55.408Z,0.70
2018-02-23T02:04:23.737Z,0.71
2018-02-23T02:06:52.878Z,0.67
2018-02-23T02:09:21.272Z,0.70
2018-02-23T02:11:49.610Z,0.67
2018-02-23T02:14:17.960Z,0.68
2018-02-23T02:16:46.320Z,0.65
2018-02-23T02:19:14.679Z,0.63
2018-02-23T02:21:43.022Z,0.62
2018-02-23T02:24:12.156Z,0.64
2018-02-23T02:26:40.462Z,0.60
2018-02-23T02:29:08.807Z,0.57
2018-02-23T02:31:37.115Z,0.52
2018-02-23T02:34:05.604Z,0.54
2018-02-23T02:36:34.718Z,0.59
2018-02-23T02:39:03.068Z,0.60
2018-02-23T02:41:31.433Z,0.63
2018-02-23T02:43:59.790Z,0.60
2018-02-23T02:46:28.940Z,0.59
2018-02-23T02:48:57.328Z,0.59
2018-02-23T02:51:25.647Z,0.58
2018-02-23T02:53:54.762Z,0.57
2018-02-23T02:56:23.135Z,0.56
2018-02-23T02:58:52.260Z,0.57
2018-02-23T03:01:20.627Z,0.55
2018-02-23T03:03:49.030Z,0.48
2018-02-23T03:06:17.454Z,0.46
2018-02-23T03:08:45.849Z,0.49
2018-02-23T03:11:15.056Z,0.49
2018-02-23T03:13:43.576Z,0.48
2018-02-23T03:16:11.959Z,0.48
2018-02-23T03:18:40.286Z,0.47
2018-02-23T03:21:08.653Z,0.48
2018-02-23T03:23:37.791Z,0.49
2018-02-23T03:26:06.187Z,0.48
2018-02-23T03:28:34.536Z,0.48
2018-02-23T03:31:02.875Z,0.45
2018-02-23T03:33:31.230Z,0.47
2018-02-23T03:35:59.649Z,0.46
2018-02-23T03:38:27.996Z,0.44
2018-02-23T03:40:56.340Z,0.45
2018-02-23T03:43:24.979Z,0.48
2018-02-23T03:45:53.456Z,0.44
2018-02-23T03:48:21.830Z,0.41
2018-02-23T03:50:50.270Z,0.40
2018-02-23T03:53:18.663Z,0.41
2018-02-23T03:55:47.044Z,0.40
2018-02-23T03:58:15.389Z,0.37
2018-02-23T04:00:43.992Z,0.36
2018-02-23T04:03:12.428Z,0.37
2018-02-23T04:05:40.808Z,0.41
2018-02-23T04:08:09.228Z,0.42
2018-02-23T04:10:37.588Z,0.46
2018-02-23T04:13:06.030Z,0.44
2018-02-23T04:15:34.400Z,0.40
2018-02-23T04:18:02.748Z,0.38
2018-02-23T04:20:31.076Z,0.35
2018-02-23T04:23:00.248Z,0.40
2018-02-23T04:25:28.622Z,0.42
2018-02-23T04:27:57.014Z,0.41
2018-02-23T04:30:25.464Z,0.42
2018-02-23T04:32:54.623Z,0.38
2018-02-23T04:35:23.738Z,0.39
2018-02-23T04:37:52.060Z,0.41
2018-02-23T04:40:20.384Z,0.42
2018-02-23T04:42:49.464Z,0.40
2018-02-23T04:45:17.794Z,0.38
2018-02-23T04:47:46.102Z,0.33
2018-02-23T04:50:14.417Z,0.47
2018-02-23T04:52:43.496Z,0.43
2018-02-23T04:55:11.810Z,0.48
2018-02-23T04:57:40.889Z,0.52
2018-02-23T05:00:09.216Z,0.60
2018-02-23T05:02:37.537Z,0.62
2018-02-23T05:05:05.858Z,0.55
2018-02-23T05:07:34.176Z,0.53
2018-02-23T05:10:02.497Z,0.56
2018-02-23T05:12:31.592Z,0.56
2018-02-23T05:14:59.923Z,0.63
2018-02-23T05:17:28.247Z,0.64
2018-02-23T05:19:56.560Z,0.56
2018-02-23T05:22:24.882Z,0.50
2018-02-23T05:24:53.190Z,0.50
2018-02-23T05:27:21.544Z,0.53
2018-02-23T05:29:49.904Z,0.48
2018-02-23T05:32:18.228Z,0.54
2018-02-23T05:34:46.619Z,0.56
2018-02-23T05:37:14.980Z,0.58
2018-02-23T05:39:43.303Z,0.60
2018-02-23T05:42:11.733Z,0.64
2018-02-23T05:44:40.060Z,0.64
2018-02-23T05:47:09.141Z,0.69
2018-02-23T05:49:37.468Z,0.67
2018-02-23T05:52:05.778Z,0.73
2018-02-23T05:54:34.134Z,0.75
2018-02-23T05:57:02.454Z,0.82
2018-02-23T05:59:30.784Z,0.80
2018-02-23T06:01:59.100Z,0.79
2018-02-23T06:04:27.448Z,0.77
2018-02-23T06:06:55.775Z,0.71
2018-02-23T06:09:24.114Z,0.65
2018-02-23T06:11:52.430Z,0.64
2018-02-23T06:14:20.774Z,0.60
2018-02-23T06:16:49.111Z,0.56
2018-02-23T06:19:24.344Z,0.55
2018-02-23T06:21:52.673Z,0.60
2018-02-23T06:24:21.003Z,0.61
2018-02-23T06:26:49.319Z,0.63
2018-02-23T06:29:17.640Z,0.62
2018-02-23T06:31:46.044Z,0.59
2018-02-23T06:34:14.383Z,0.57
2018-02-23T06:36:42.698Z,0.55
2018-02-23T06:39:11.020Z,0.57
2018-02-23T06:41:39.399Z,0.58
2018-02-23T06:44:07.729Z,0.60
2018-02-23T06:46:36.044Z,0.62
2018-02-23T06:49:05.157Z,0.60
2018-02-23T06:51:34.337Z,0.61
2018-02-23T06:54:03.572Z,0.64
2018-02-23T06:56:31.903Z,0.66
2018-02-23T06:59:00.245Z,0.69
2018-02-23T07:01:28.597Z,0.72
2018-02-23T07:03:57.722Z,0.76
2018-02-23T07:06:26.056Z,0.85
2018-02-23T07:08:54.466Z,0.94
2018-02-23T07:11:23.543Z,0.93
2018-02-23T07:13:52.628Z,0.91
2018-02-23T07:16:21.662Z,0.96
2018-02-23T07:18:49.994Z,1.01
2018-02-23T07:21:18.341Z,1.05
2018-02-23T07:23:46.656Z,1.12
2018-02-23T07:26:14.987Z,1.17
2018-02-23T07:28:43.300Z,1.25
2018-02-23T07:31:11.607Z,1.36
2018-02-23T07:33:39.962Z,1.46
2018-02-23T07:36:08.287Z,1.65
2018-02-23T07:38:37.402Z,1.92
2018-02-23T07:41:06.493Z,2.12
2018-02-23T07:43:35.637Z,2.36
2018-02-23T07:46:05.739Z,2.59
2018-02-23T07:48:34.053Z,2.81
2018-02-23T07:51:02.374Z,2.98
2018-02-23T07:53:31.469Z,3.18
2018-02-23T07:56:00.617Z,3.35
2018-02-23T07:58:28.972Z,3.51
2018-02-23T08:00:57.285Z,3.71
2018-02-23T08:03:25.624Z,3.87
2018-02-23T08:05:54.074Z,4.04
2018-02-23T08:08:22.419Z,4.13
2018-02-23T08:10:50.891Z,4.27
2018-02-23T08:13:19.189Z,4.39
2018-02-23T08:15:47.499Z,4.52
2018-02-23T08:18:15.833Z,4.66
2018-02-23T08:20:44.128Z,4.79
2018-02-23T08:23:12.603Z,4.90
2018-02-23T08:25:40.999Z,5.07
2018-02-23T08:28:09.301Z,5.25
2018-02-23T08:30:37.667Z,5.38
2018-02-23T08:33:05.998Z,5.39
2018-02-23T08:35:35.125Z,5.42
2018-02-23T08:38:03.470Z,5.37
2018-02-23T08:40:32.607Z,5.27
2018-02-23T08:43:01.086Z,5.21
2018-02-23T08:45:29.486Z,5.24
2018-02-23T08:47:57.849Z,5.25
2018-02-23T08:50:26.205Z,5.30
2018-02-23T08:52:55.399Z,5.28
2018-02-23T08:55:23.731Z,5.30
2018-02-23T08:57:52.184Z,5.39
2018-02-23T09:00:21.257Z,5.51
2018-02-23T09:02:50.391Z,5.67
2018-02-23T09:05:19.077Z,5.86
2018-02-23T09:07:47.413Z,6.01
2018-02-23T09:10:16.677Z,6.09
2018-02-23T09:12:45.061Z,6.09
2018-02-23T09:15:13.390Z,6.05
2018-02-23T09:17:42.461Z,6.00
2018-02-23T09:20:10.848Z,6.04
2018-02-23T09:22:39.235Z,6.05
2018-02-23T09:25:07.561Z,6.05
2018-02-23T09:27:35.997Z,6.06
2018-02-23T09:30:04.382Z,6.10
2018-02-23T09:32:39.904Z,6.08
2018-02-23T09:35:08.250Z,6.17
2018-02-23T09:37:36.575Z,6.16
2018-02-23T09:40:04.897Z,6.24
2018-02-23T09:42:33.984Z,6.33
2018-02-23T09:45:03.053Z,6.42
2018-02-23T09:47:31.377Z,6.51
2018-02-23T09:50:00.463Z,6.63
2018-02-23T09:52:29.561Z,6.71
2018-02-23T09:54:58.689Z,6.78
2018-02-23T09:57:27.012Z,6.86
2018-02-23T09:59:55.339Z,6.90
2018-02-23T10:02:23.733Z,6.93
2018-02-23T10:04:52.112Z,6.97
2018-02-23T10:07:20.467Z,7.04
2018-02-23T10:09:49.534Z,7.12
2018-02-23T10:12:17.927Z,7.17
2018-02-23T10:14:46.235Z,7.23
2018-02-23T10:17:15.343Z,7.28
2018-02-23T10:19:43.706Z,7.39
2018-02-23T10:22:12.798Z,7.47
2018-02-23T10:24:41.143Z,7.59
2018-02-23T10:27:09.484Z,7.76
2018-02-23T10:29:37.819Z,7.75
2018-02-23T10:32:06.160Z,7.83
2018-02-23T10:34:34.549Z,8.00
2018-02-23T10:37:02.854Z,8.20
2018-02-23T10:39:31.515Z,8.34
2018-02-23T10:41:59.817Z,8.50
2018-02-23T10:44:28.196Z,8.66
2018-02-23T10:46:56.523Z,8.83
2018-02-23T10:49:25.613Z,8.89
2018-02-23T10:51:53.953Z,8.89
2018-02-23T10:54:22.271Z,9.04
2018-02-23T10:56:50.634Z,9.21
2018-02-23T10:59:18.965Z,9.36
2018-02-23T11:01:47.275Z,9.50
2018-02-23T11:04:16.477Z,9.40
2018-02-23T11:06:44.767Z,9.27
2018-02-23T11:09:13.091Z,9.37
2018-02-23T11:11:42.154Z,9.53
2018-02-23T11:14:10.599Z,9.59
2018-02-23T11:16:38.944Z,9.60
2018-02-23T11:19:08.051Z,9.52
2018-02-23T11:21:37.387Z,9.52
2018-02-23T11:24:05.688Z,9.71
2018-02-23T11:26:33.994Z,9.82
2018-02-23T11:29:03.009Z,10.12
2018-02-23T11:31:32.104Z,10.51
2018-02-23T11:34:01.237Z,10.82
2018-02-23T11:36:29.552Z,10.97
2018-02-23T11:38:57.869Z,11.22
2018-02-23T11:41:26.951Z,11.43
2018-02-23T11:43:55.379Z,11.49
2018-02-23T11:46:23.965Z,11.58
2018-02-23T11:48:52.288Z,11.59
2018-02-23T11:51:20.603Z,11.56
2018-02-23T11:53:49.820Z,11.43
2018-02-23T11:56:18.165Z,11.35
2018-02-23T11:58:46.638Z,11.19
2018-02-23T12:01:15.033Z,11.00
2018-02-23T12:03:43.340Z,10.91
2018-02-23T12:06:11.657Z,10.74
2018-02-23T12:08:40.114Z,10.77
2018-02-23T12:11:08.480Z,10.94
2018-02-23T12:13:37.841Z,11.08
2018-02-23T12:16:06.391Z,11.22
2018-02-23T12:18:34.689Z,11.37
2018-02-23T12:21:03.039Z,11.64
2018-02-23T12:23:32.254Z,11.91
2018-02-23T12:26:00.593Z,12.15
2018-02-23T12:28:28.972Z,12.45
2018-02-23T12:30:59.611Z,12.78
2018-02-23T12:33:28.953Z,13.07
2018-02-23T12:35:57.713Z,13.32
2018-02-23T12:38:26.812Z,13.62
2018-02-23T12:40:55.903Z,13.97
2018-02-23T12:43:24.223Z,14.33
2018-02-23T12:45:52.529Z,14.60
2018-02-23T12:48:20.870Z,14.64
2018-02-23T12:50:49.220Z,14.91
2018-02-23T12:53:17.532Z,15.20
2018-02-23T12:55:45.849Z,15.55
2018-02-23T12:58:14.916Z,15.91
2018-02-23T13:00:43.556Z,16.21
2018-02-23T13:03:11.874Z,16.48
2018-02-23T13:05:40.229Z,16.92
2018-02-23T13:08:08.594Z,17.20
2018-02-23T13:10:36.930Z,17.38
2018-02-23T13:13:05.339Z,17.69
2018-02-23T13:15:33.680Z,17.83
2018-02-23T13:18:02.018Z,18.03
2018-02-23T13:20:30.335Z,18.23
2018-02-23T13:22:59.410Z,18.41
2018-02-23T13:25:27.738Z,18.77
2018-02-23T13:28:01.635Z,19.00
2018-02-23T13:30:30.720Z,19.13
2018-02-23T13:32:59.815Z,19.25
2018-02-23T13:35:28.940Z,19.45
2018-02-23T13:37:57.258Z,19.63
2018-02-23T13:40:25.966Z,19.56
2018-02-23T13:42:54.302Z,19.49
2018-02-23T13:45:23.502Z,19.60
2018-02-23T13:47:51.826Z,19.50
2018-02-23T13:50:20.150Z,19.39
2018-02-23T13:52:48.494Z,19.60
2018-02-23T13:55:16.827Z,19.91
2018-02-23T13:57:45.266Z,20.13
2018-02-23T14:00:13.636Z,20.37
2018-02-23T14:02:42.432Z,20.40
2018-02-23T14:05:10.755Z,20.37
2018-02-23T14:07:39.154Z,20.24
2018-02-23T14:10:07.492Z,20.19
2018-02-23T14:12:36.604Z,20.20
2018-02-23T14:15:04.943Z,20.18
2018-02-23T14:17:33.357Z,20.21
2018-02-23T14:20:02.481Z,20.22
2018-02-23T14:22:30.860Z,20.23
2018-02-23T14:24:59.239Z,20.34
2018-02-23T14:27:27.573Z,20.44
2018-02-23T14:29:55.891Z,20.57
2018-02-23T14:32:24.213Z,20.62
2018-02-23T14:34:52.517Z,20.67
2018-02-23T14:37:21.802Z,20.66
2018-02-23T14:39:50.202Z,20.57
2018-02-23T14:42:19.173Z,20.44
2018-02-23T14:44:47.484Z,20.45
2018-02-23T14:47:17.097Z,20.40
2018-02-23T14:50:03.007Z,20.23
2018-02-23T14:52:32.191Z,19.97
2018-02-23T14:55:01.284Z,19.70
2018-02-23T14:57:30.363Z,19.49
2018-02-23T14:59:58.717Z,19.36
2018-02-23T15:02:27.051Z,19.39
2018-02-23T15:04:56.124Z,19.39
2018-02-23T15:07:24.502Z,19.34
2018-02-23T15:09:52.850Z,19.11
2018-02-23T15:12:21.167Z,18.70
2018-02-23T15:14:49.487Z,18.75
2018-02-23T15:17:17.814Z,18.94
2018-02-23T15:19:46.161Z,19.16
2018-02-23T15:22:14.633Z,19.29
2018-02-23T15:24:42.945Z,19.23
2018-02-23T15:27:11.293Z,19.28
2018-02-23T15:29:39.618Z,19.27
2018-02-23T15:32:38.595Z,19.11
2018-02-23T15:35:08.420Z,19.02
2018-02-23T15:37:36.730Z,19.20
2018-02-23T15:40:05.877Z,19.24
2018-02-23T15:42:34.192Z,19.12
2018-02-23T15:45:02.512Z,18.80
2018-02-23T15:47:34.169Z,18.36
2018-02-23T15:50:09.222Z,18.09
2018-02-23T15:52:37.829Z,17.94
2018-02-23T15:55:06.180Z,17.77
2018-02-23T15:57:34.544Z,17.53
2018-02-23T16:00:02.912Z,17.36
2018-02-23T16:02:32.045Z,17.23
2018-02-23T16:05:00.422Z,17.00
2018-02-23T16:07:28.766Z,16.83
2018-02-23T16:09:57.886Z,16.65
2018-02-23T16:12:26.977Z,16.28
2018-02-23T16:14:56.088Z,15.97
2018-02-23T16:17:24.401Z,15.30
2018-02-23T16:19:52.767Z,14.46
2018-02-23T16:22:21.087Z,13.60
2018-02-23T16:24:49.414Z,12.72
2018-02-23T16:27:17.744Z,11.87
2018-02-23T16:29:46.097Z,11.40
2018-02-23T16:32:14.426Z,10.81
2018-02-23T16:34:42.752Z,10.13
2018-02-23T16:37:11.124Z,9.58
2018-02-23T16:39:40.526Z,8.91
2018-02-23T16:42:09.083Z,8.39
2018-02-23T16:44:38.204Z,7.90
2018-02-23T16:47:06.601Z,7.45
2018-02-23T16:49:34.941Z,7.07
2018-02-23T16:52:04.059Z,6.67
2018-02-23T16:54:32.399Z,6.37
2018-02-23T16:57:01.489Z,6.12
2018-02-23T16:59:29.844Z,5.84
2018-02-23T17:02:00.452Z,5.59
2018-02-23T17:04:28.842Z,5.33
2018-02-23T17:06:57.996Z,5.19
2018-02-23T17:09:27.873Z,5.00
2018-02-23T17:11:56.224Z,4.83
2018-02-23T17:14:25.571Z,4.61
2018-02-23T17:16:53.888Z,4.47
2018-02-23T17:19:22.366Z,4.28
2018-02-23T17:21:50.758Z,4.15
2018-02-23T17:24:19.865Z,4.07
2018-02-23T17:26:49.816Z,3.98
2018-02-23T17:29:18.344Z,3.96
2018-02-23T17:31:48.225Z,3.87
2018-02-23T17:34:16.799Z,3.78
2018-02-23T17:36:45.946Z,3.71
2018-02-23T17:39:14.381Z,3.63
2018-02-23T17:41:42.698Z,3.58
2018-02-23T17:44:11.123Z,3.53
2018-02-23T17:46:39.453Z,3.46
2018-02-23T17:49:08.227Z,3.39
2018-02-23T17:51:36.716Z,3.34
2018-02-23T17:54:05.701Z,3.24
2018-02-23T17:56:34.106Z,3.15
2018-02-23T17:59:02.426Z,3.11
2018-02-23T18:01:30.767Z,3.08
2018-02-23T18:03:59.196Z,3.10
2018-02-23T18:06:27.565Z,3.06
2018-02-23T18:08:55.940Z,3.01
2018-02-23T18:11:24.400Z,2.93
2018-02-23T18:13:53.647Z,2.89
2018-02-23T18:16:22.038Z,2.87
2018-02-23T18:18:58.011Z,2.87
2018-02-23T18:21:26.594Z,2.88
2018-02-23T18:23:54.924Z,2.82
2018-02-23T18:26:23.294Z,2.79
2018-02-23T18:28:51.613Z,2.80
2018-02-23T18:31:20.756Z,2.79
2018-02-23T18:33:49.140Z,2.78
2018-02-23T18:36:17.461Z,2.77
2018-02-23T18:38:45.820Z,2.76
2018-02-23T18:41:14.174Z,2.77
2018-02-23T18:43:42.532Z,2.69
2018-02-23T18:46:10.920Z,2.71
2018-02-23T18:48:39.342Z,2.70
2018-02-23T18:51:09.008Z,2.62
2018-02-23T18:53:38.862Z,2.58
2018-02-23T18:56:07.182Z,2.55
2018-02-23T18:58:35.516Z,2.50
2018-02-23T19:01:03.852Z,2.47
2018-02-23T19:03:32.931Z,2.43
2018-02-23T19:06:01.740Z,2.44
2018-02-23T19:08:30.840Z,2.42
2018-02-23T19:10:59.174Z,2.37
2018-02-23T19:13:27.511Z,2.37
2018-02-23T19:15:56.624Z,2.41
2018-02-23T19:18:24.926Z,2.38
2018-02-23T19:20:53.252Z,2.42
2018-02-23T19:23:22.388Z,2.42
2018-02-23T19:25:50.701Z,2.39
2018-02-23T19:28:19.037Z,2.43
2018-02-23T19:30:48.135Z,2.41
2018-02-23T19:33:18.014Z,2.40
2018-02-23T19:35:46.330Z,2.35
2018-02-23T19:38:14.698Z,2.27
2018-02-23T19:40:43.796Z,2.20
2018-02-23T19:43:12.207Z,2.18
2018-02-23T19:45:40.558Z,2.12
2018-02-23T19:48:09.710Z,2.03
2018-02-23T19:50:38.136Z,1.99
2018-02-23T19:53:07.214Z,1.94
2018-02-23T19:55:35.557Z,1.84
2018-02-23T19:58:03.877Z,1.80
2018-02-23T20:00:32.892Z,1.77
2018-02-23T20:03:02.083Z,1.75
2018-02-23T20:05:30.503Z,1.74
2018-02-23T20:07:58.868Z,1.74
2018-02-23T20:10:27.950Z,1.64
2018-02-23T20:12:57.137Z,1.64
2018-02-23T20:15:26.317Z,1.61
2018-02-23T20:17:55.433Z,1.55
2018-02-23T20:20:23.789Z,1.52
2018-02-23T20:22:52.282Z,1.48
2018-02-23T20:25:20.626Z,1.44
2018-02-23T20:27:49.025Z,1.44
2018-02-23T20:30:17.491Z,1.44
2018-02-23T20:32:45.888Z,1.38
2018-02-23T20:35:14.397Z,1.34
2018-02-23T20:37:43.295Z,1.31
2018-02-23T20:40:11.730Z,1.27
2018-02-23T20:42:40.086Z,1.23
2018-02-23T20:45:08.448Z,1.22
2018-02-23T20:47:37.830Z,1.22
2018-02-23T20:50:06.236Z,1.21
2018-02-23T20:52:34.581Z,1.28
2018-02-23T20:55:03.346Z,1.25
2018-02-23T20:57:31.711Z,1.21
2018-02-23T21:00:00.926Z,1.17
2018-02-23T21:02:29.500Z,1.15
2018-02-23T21:04:57.960Z,1.17
2018-02-23T21:07:26.391Z,1.09
2018-02-23T21:09:54.739Z,1.07
2018-02-23T21:12:23.856Z,1.06
2018-02-23T21:14:52.998Z,1.00
2018-02-23T21:17:21.329Z,0.98
2018-02-23T21:19:50.425Z,0.92
2018-02-23T21:22:20.364Z,0.83
2018-02-23T21:24:48.749Z,0.78
2018-02-23T21:27:17.154Z,0.82
2018-02-23T21:29:45.478Z,0.84
2018-02-23T21:32:13.820Z,0.85
2018-02-23T21:34:42.155Z,0.83
2018-02-23T21:37:11.276Z,0.81
2018-02-23T21:39:39.626Z,0.80
2018-02-23T21:42:07.996Z,0.78
2018-02-23T21:44:47.730Z,0.74
2018-02-23T21:47:16.096Z,0.70
2018-02-23T21:49:44.431Z,0.63
2018-02-23T21:52:12.842Z,0.60
2018-02-23T21:54:41.218Z,0.60
2018-02-23T21:57:10.417Z,0.50
2018-02-23T21:59:38.794Z,0.52
2018-02-23T22:02:07.142Z,0.48
2018-02-23T22:04:36.256Z,0.49
2018-02-23T22:07:04.662Z,0.49
2018-02-23T22:09:33.006Z,0.46
2018-02-23T22:12:02.119Z,0.47
2018-02-23T22:14:30.505Z,0.48
2018-02-23T22:16:58.870Z,0.44
2018-02-23T22:19:27.939Z,0.41
2018-02-23T22:21:57.133Z,0.43
2018-02-23T22:24:25.524Z,0.41
2018-02-23T22:26:53.904Z,0.45
2018-02-23T22:29:22.232Z,0.46
2018-02-23T22:31:50.558Z,0.42
2018-02-23T22:34:18.866Z,0.40
2018-02-23T22:36:47.998Z,0.45
2018-02-23T22:39:16.993Z,0.43
2018-02-23T22:41:46.029Z,0.39
2018-02-23T22:44:15.809Z,0.36
2018-02-23T22:46:44.196Z,0.32
2018-02-23T22:49:12.697Z,0.23
2018-02-23T22:51:41.046Z,0.24
2018-02-23T22:54:09.403Z,0.26
2018-02-23T22:56:37.808Z,0.20
2018-02-23T22:59:06.195Z,0.19
2018-02-23T23:01:34.549Z,0.13
2018-02-23T23:04:04.261Z,0.08
2018-02-23T23:06:33.367Z,0.03
2018-02-23T23:09:02.544Z,0.06
2018-02-23T23:11:31.891Z,0.05
2018-02-23T23:14:00.282Z,0.07
2018-02-23T23:16:28.740Z,0.10
2018-02-23T23:18:57.833Z,0.12
2018-02-23T23:21:26.977Z,0.10
2018-02-23T23:23:56.033Z,0.07
2018-02-23T23:26:24.399Z,0.05
2018-02-23T23:28:53.492Z,0.02
2018-02-23T23:31:22.618Z,0.02
2018-02-23T23:33:50.982Z,0.05
2018-02-23T23:36:20.168Z,0.08
2018-02-23T23:38:48.541Z,0.04
2018-02-23T23:41:16.932Z,-0.01
2018-02-23T23:43:46.113Z,-0.04
2018-02-23T23:46:14.485Z,-0.07
2018-02-23T23:48:43.453Z,-0.09
2018-02-23T23:51:11.868Z,-0.07
2018-02-23T23:53:40.238Z,-0.11
2018-02-23T23:56:08.660Z,-0.13
2018-02-23T23:58:37.044Z,-0.19
